This is the latest recevied weather packets stored in our database for station/object IT9RID. If no packets are shown the sender has not sent any weather packets the latest 10 day(s).
| Time | Temp. | Humidity | Pressure | Rain* | Wind** | Luminosity | Snow |
|---|---|---|---|---|---|---|---|
| 1777885437 | 20.56° C | 50% | 1020 hPa | 0 mm | - | - | - |
| 1777884846 | 20.56° C | 50% | 1019.9 hPa | 0 mm | - | - | - |
| 1777884236 | 20° C | 53% | 1019.8 hPa | 0 mm | - | - | - |
| 1777883636 | 18.89° C | 61% | 1019.9 hPa | 0 mm | - | - | - |
| 1777883036 | 18.89° C | 59% | 1020 hPa | 0 mm | - | - | - |
| 1777882436 | 19.44° C | 56% | 1020 hPa | 0 mm | - | - | - |
| 1777881836 | 19.44° C | 54% | 1020 hPa | 0 mm | - | - | - |
| 1777881235 | 19.44° C | 48% | 1020 hPa | 0 mm | - | - | - |
| 1777880635 | 19.44° C | 43% | 1020.1 hPa | 0 mm | - | - | - |
| 1777880035 | 19.44° C | 42% | 1020.2 hPa | 0 mm | - | - | - |
| 1777879435 | 18.89° C | 42% | 1020.3 hPa | 0 mm | - | - | - |
| 1777878835 | 18.89° C | 40% | 1020.3 hPa | 0 mm | - | - | - |
| 1777878235 | 18.89° C | 39% | 1020.3 hPa | 0 mm | - | - | - |
| 1777877636 | 18.33° C | 40% | 1020.3 hPa | 0 mm | - | - | - |
| 1777877036 | 17.78° C | 41% | 1020.3 hPa | 0 mm | - | - | - |
| 1777876434 | 17.78° C | 43% | 1020.2 hPa | 0 mm | - | - | - |
| 1777875834 | 16.67° C | 48% | 1020.3 hPa | 0 mm | - | - | - |
| 1777875234 | 15.56° C | 53% | 1020.2 hPa | 0 mm | - | - | - |
| 1777874633 | 15° C | 56% | 1020.2 hPa | 0 mm | - | - | - |
| 1777874034 | 13.89° C | 58% | 1020.1 hPa | 0 mm | - | - | - |
| 1777873433 | 13.33° C | 59% | 1020.1 hPa | 0 mm | - | - | - |
| 1777872833 | 12.78° C | 61% | 1020 hPa | 0 mm | - | - | - |
| 1777872233 | 12.22° C | 62% | 1019.9 hPa | 0 mm | - | - | - |
| 1777871633 | 12.22° C | 60% | 1019.8 hPa | 0 mm | - | - | - |
| 1777871033 | 12.22° C | 60% | 1019.8 hPa | 0 mm | - | - | - |
* Rain latest hour (hover to see other rain measurements)
** Current wind speed in m/s (hover to see current wind gust speed)